Time;durP1;ratioP1;P1;durP2;ratioP2;P2;SDS_P1;SDS_P2;PMS_P1;PMS_P2;Temp;Humidity;BMP_temperature;BMP_pressure;BME280_temperature;BME280_humidity;BME280_pressure;Samples;Min_cycle;Max_cycle;Signal;HPM_P1;HPM_P2
2023/03/22 00:02:07;;;;;;;6.95;2.78;;;2.00;99.90;;;;;;5052800;28;20048;-79
2023/03/22 00:04:35;;;;;;;4.88;2.90;;;2.00;99.90;;;;;;5053124;28;20139;-79
2023/03/22 00:07:02;;;;;;;2.30;2.17;;;1.90;99.90;;;;;;5070549;28;20444;-79
2023/03/22 00:09:30;;;;;;;4.63;2.88;;;1.90;99.90;;;;;;5067251;28;20486;-78
2023/03/22 00:11:58;;;;;;;4.65;3.00;;;1.90;99.90;;;;;;5071676;28;20521;-79
2023/03/22 00:14:27;;;;;;;4.50;2.33;;;2.00;99.90;;;;;;5070493;28;20044;-78
2023/03/22 00:16:54;;;;;;;5.45;2.80;;;2.00;99.90;;;;;;5071355;28;20049;-79
2023/03/22 00:19:22;;;;;;;2.72;2.30;;;2.00;99.90;;;;;;5068920;28;20053;-79
2023/03/22 00:21:50;;;;;;;2.78;2.20;;;2.00;99.90;;;;;;5036523;28;20432;-79
2023/03/22 00:24:19;;;;;;;5.43;2.83;;;2.00;99.90;;;;;;5052365;28;20049;-79
2023/03/22 00:26:47;;;;;;;5.72;2.30;;;2.00;99.90;;;;;;5035612;28;20048;-79
2023/03/22 00:29:15;;;;;;;2.17;2.00;;;2.00;99.90;;;;;;5047253;28;20491;-79
2023/03/22 00:31:44;;;;;;;2.25;1.60;;;2.00;99.90;;;;;;5069432;28;20044;-79
2023/03/22 00:34:11;;;;;;;2.80;2.00;;;2.00;99.90;;;;;;5071436;28;20443;-79
2023/03/22 00:36:40;;;;;;;2.38;2.17;;;2.00;99.90;;;;;;5050737;28;20532;-79
2023/03/22 00:39:07;;;;;;;3.95;2.33;;;2.00;99.90;;;;;;5059485;28;20395;-79
2023/03/22 00:41:35;;;;;;;5.32;2.90;;;2.00;99.90;;;;;;5033018;28;20044;-79
2023/03/22 00:44:02;;;;;;;11.30;3.45;;;2.10;99.90;;;;;;5050367;28;20128;-79
2023/03/22 00:46:31;;;;;;;2.72;2.53;;;2.10;99.90;;;;;;5030906;28;20044;-79
2023/03/22 00:49:00;;;;;;;5.78;3.50;;;2.10;99.90;;;;;;5056202;28;20079;-79
2023/03/22 00:51:27;;;;;;;10.43;3.40;;;2.10;99.90;;;;;;5055972;28;20056;-79
2023/03/22 00:53:55;;;;;;;3.97;2.95;;;2.00;99.90;;;;;;5072403;28;20050;-79
2023/03/22 00:56:24;;;;;;;5.20;2.97;;;2.00;99.90;;;;;;5049229;28;20102;-80
2023/03/22 00:59:00;;;;;;;4.25;3.15;;;2.00;99.90;;;;;;5072514;28;20082;-80
2023/03/22 01:01:29;;;;;;;3.22;2.92;;;2.00;99.90;;;;;;5072337;28;20094;-79
2023/03/22 01:03:56;;;;;;;4.15;3.17;;;1.90;99.90;;;;;;5050389;28;20739;-79
2023/03/22 01:06:25;;;;;;;3.17;2.88;;;1.90;99.90;;;;;;5054930;28;20513;-79
2023/03/22 01:08:53;;;;;;;2.55;2.33;;;2.00;99.90;;;;;;5073482;28;20040;-79
2023/03/22 01:11:21;;;;;;;2.90;2.70;;;1.90;99.90;;;;;;5071930;28;20052;-79
2023/03/22 01:13:49;;;;;;;3.15;2.78;;;1.90;99.90;;;;;;5064248;28;20048;-79
2023/03/22 01:16:18;;;;;;;3.75;3.17;;;1.90;99.90;;;;;;5069975;28;20044;-79
2023/03/22 01:18:47;;;;;;;2.58;2.38;;;1.90;99.90;;;;;;5053751;28;20152;-79
2023/03/22 01:21:19;;;;;;;2.78;2.33;;;1.90;99.90;;;;;;5055264;28;20056;-78
2023/03/22 01:23:50;;;;;;;2.60;2.40;;;1.90;99.90;;;;;;5007511;28;1279719;-78
2023/03/22 01:26:21;;;;;;;;;;;1.90;99.90;;;;;;5072882;28;20060;-77
2023/03/22 01:28:51;;;;;;;2.78;2.55;;;1.90;99.90;;;;;;5088049;28;19931;-79
2023/03/22 01:31:19;;;;;;;2.70;2.50;;;1.80;99.90;;;;;;5072901;28;20327;-79
2023/03/22 01:33:46;;;;;;;3.92;3.00;;;1.80;99.90;;;;;;5074097;28;20505;-79
2023/03/22 01:36:14;;;;;;;4.50;3.20;;;1.80;99.90;;;;;;5073828;28;20451;-80
2023/03/22 01:38:41;;;;;;;4.30;3.90;;;1.80;99.90;;;;;;5055924;28;20045;-79
2023/03/22 01:41:10;;;;;;;5.10;3.60;;;1.80;99.90;;;;;;5072687;28;20489;-77
2023/03/22 01:43:41;;;;;;;5.22;3.67;;;1.80;99.90;;;;;;5055953;28;20041;-77
2023/03/22 01:46:09;;;;;;;6.65;2.97;;;1.80;99.90;;;;;;5055907;28;20048;-78
2023/03/22 01:48:44;;;;;;;2.83;2.63;;;1.90;99.90;;;;;;5072791;28;20075;-78
2023/03/22 01:51:17;;;;;;;2.55;2.35;;;1.80;99.90;;;;;;5054904;28;20040;-78
2023/03/22 01:54:23;;;;;;;3.05;2.70;;;1.80;99.90;;;;;;5050300;28;20060;-78
2023/03/22 01:56:53;;;;;;;2.17;2.00;;;1.80;99.90;;;;;;5061284;28;20049;-78
2023/03/22 01:59:31;;;;;;;2.97;2.53;;;1.80;99.90;;;;;;5054457;28;20520;-77
2023/03/22 02:02:29;;;;;;;3.47;2.17;;;1.80;99.90;;;;;;5072400;28;20505;-78
2023/03/22 02:05:06;;;;;;;2.50;2.30;;;1.70;99.90;;;;;;5072971;28;20134;-78
2023/03/22 02:07:34;;;;;;;3.83;1.92;;;1.70;99.90;;;;;;5069220;28;20063;-78
2023/03/22 02:10:03;;;;;;;2.20;2.00;;;1.70;99.90;;;;;;5055624;28;20044;-78
2023/03/22 02:12:59;;;;;;;2.33;2.13;;;1.70;99.90;;;;;;5055745;28;20512;-78
2023/03/22 02:15:48;;;;;;;4.50;2.50;;;1.70;99.90;;;;;;5072166;28;20497;-78
2023/03/22 02:18:52;;;;;;;2.97;2.72;;;1.80;99.90;;;;;;5072254;28;20044;-77
2023/03/22 02:21:49;;;;;;;3.05;2.85;;;1.80;99.90;;;;;;5073714;28;20051;-77
2023/03/22 02:24:58;;;;;;;2.45;2.25;;;1.80;99.90;;;;;;5055244;28;20049;-78
2023/03/22 02:27:58;;;;;;;2.47;2.10;;;1.70;99.90;;;;;;5013184;28;20052;-78
2023/03/22 02:31:15;;;;;;;2.53;1.95;;;1.70;99.90;;;;;;5073328;28;20048;-78
2023/03/22 02:34:18;;;;;;;1.98;1.88;;;1.70;99.90;;;;;;5043457;28;20393;-77
2023/03/22 02:37:01;;;;;;;;;;;1.70;99.90;;;;;;5072059;28;20063;-77
2023/03/22 02:39:35;;;;;;;2.35;1.83;;;1.60;99.90;;;;;;5071722;28;20420;-80
2023/03/22 02:42:38;;;;;;;1.50;1.40;;;1.60;99.90;;;;;;5055464;28;20483;-78
2023/03/22 02:45:14;;;;;;;1.15;1.05;;;1.60;99.90;;;;;;5072051;28;20045;-78
2023/03/22 02:47:53;;;;;;;2.03;1.63;;;1.60;99.90;;;;;;5055125;28;20078;-81
2023/03/22 02:50:28;;;;;;;1.52;1.42;;;1.50;99.90;;;;;;5071283;28;20394;-79
2023/03/22 02:53:03;;;;;;;1.45;1.35;;;1.60;99.90;;;;;;5072431;28;20048;-78
2023/03/22 02:55:38;;;;;;;1.23;1.10;;;1.50;99.90;;;;;;5051762;28;20044;-78
2023/03/22 02:58:11;;;;;;;1.70;1.60;;;1.50;99.90;;;;;;5035260;28;20045;-78
2023/03/22 03:00:41;;;;;;;1.17;1.17;;;1.50;99.90;;;;;;5052763;28;20053;-78
2023/03/22 03:03:13;;;;;;;1.83;1.67;;;1.60;99.90;;;;;;5065414;28;20072;-78
2023/03/22 03:05:45;;;;;;;1.45;1.38;;;1.50;99.90;;;;;;5071391;28;20048;-78
2023/03/22 03:08:15;;;;;;;1.58;1.48;;;1.50;99.90;;;;;;5071626;28;20064;-78
2023/03/22 03:10:46;;;;;;;1.70;1.60;;;1.50;99.90;;;;;;5070604;28;20052;-79
2023/03/22 03:13:15;;;;;;;2.13;1.67;;;1.60;99.90;;;;;;5050568;28;20070;-78
2023/03/22 03:15:48;;;;;;;1.77;1.60;;;1.60;99.90;;;;;;5054047;28;20044;-78
2023/03/22 03:18:33;;;;;;;1.80;1.70;;;1.60;99.90;;;;;;5071367;28;20052;-78
2023/03/22 03:21:13;;;;;;;1.60;1.50;;;1.60;99.90;;;;;;5053852;28;20048;-78
2023/03/22 03:23:52;;;;;;;1.73;1.60;;;1.60;99.90;;;;;;5072003;28;20109;-78
2023/03/22 03:26:29;;;;;;;2.30;2.10;;;1.60;99.90;;;;;;5072037;28;20066;-79
2023/03/22 03:29:03;;;;;;;1.92;1.80;;;1.60;99.90;;;;;;5071265;28;20143;-78
2023/03/22 03:31:37;;;;;;;1.92;1.52;;;1.60;99.90;;;;;;5069062;28;20048;-78
2023/03/22 03:34:16;;;;;;;1.70;1.60;;;1.60;99.90;;;;;;5070430;28;20125;-79
2023/03/22 03:36:52;;;;;;;2.45;1.88;;;1.60;99.90;;;;;;5071948;28;20044;-80
2023/03/22 03:39:22;;;;;;;1.67;1.58;;;1.70;99.90;;;;;;5070059;28;20064;-79
2023/03/22 03:41:53;;;;;;;1.70;1.30;;;1.70;99.90;;;;;;5071410;28;20070;-78
2023/03/22 03:44:21;;;;;;;2.05;1.60;;;1.70;99.90;;;;;;5071232;28;20052;-79
2023/03/22 03:46:50;;;;;;;1.70;1.60;;;1.70;99.90;;;;;;5036543;28;20044;-78
2023/03/22 03:49:22;;;;;;;2.35;2.03;;;1.70;99.90;;;;;;5069452;28;20493;-79
2023/03/22 03:51:54;;;;;;;2.03;1.67;;;1.70;99.90;;;;;;5071908;28;20093;-78
2023/03/22 03:54:23;;;;;;;1.65;1.30;;;1.70;99.90;;;;;;5023180;28;20060;-79
2023/03/22 03:56:52;;;;;;;4.75;2.58;;;1.70;99.90;;;;;;5068838;28;20064;-79
2023/03/22 03:59:20;;;;;;;1.60;1.20;;;1.60;99.90;;;;;;5052984;28;20080;-79
2023/03/22 04:01:50;;;;;;;1.23;1.10;;;1.40;99.90;;;;;;5031645;28;20425;-79
2023/03/22 04:04:27;;;;;;;1.00;0.90;;;1.40;99.90;;;;;;5046604;28;20048;-79
2023/03/22 04:07:05;;;;;;;2.17;1.10;;;1.40;99.90;;;;;;5042645;28;20076;-79
2023/03/22 04:09:39;;;;;;;1.63;1.30;;;1.40;99.90;;;;;;5068793;28;20059;-80
2023/03/22 04:12:15;;;;;;;1.30;1.20;;;1.30;99.90;;;;;;5050181;28;20045;-79
2023/03/22 04:14:49;;;;;;;2.05;1.48;;;1.30;99.90;;;;;;5035513;28;20052;-79
2023/03/22 04:17:22;;;;;;;;;;;1.30;99.90;;;;;;5083818;28;20384;-79
2023/03/22 04:19:55;;;;;;;4.00;2.53;;;1.40;99.90;;;;;;5063411;28;19947;-80
2023/03/22 04:22:25;;;;;;;3.75;2.35;;;1.40;99.90;;;;;;5049931;28;20147;-79
2023/03/22 04:24:54;;;;;;;2.97;1.98;;;1.50;99.90;;;;;;5057911;28;20139;-81
2023/03/22 04:27:26;;;;;;;3.10;2.20;;;1.50;99.90;;;;;;5061842;28;20048;-79
2023/03/22 04:30:11;;;;;;;6.03;2.58;;;1.50;99.90;;;;;;5053332;28;20716;-80
2023/03/22 04:32:57;;;;;;;4.70;3.03;;;1.40;99.90;;;;;;5053336;28;20113;-81
2023/03/22 04:35:37;;;;;;;1.85;1.75;;;1.50;99.90;;;;;;5051588;28;20056;-79
2023/03/22 04:38:06;;;;;;;2.08;1.60;;;1.50;99.90;;;;;;5049237;28;20045;-79
2023/03/22 04:40:37;;;;;;;5.55;2.35;;;1.40;99.90;;;;;;5068295;28;20049;-81
2023/03/22 04:43:17;;;;;;;1.83;1.73;;;1.40;99.90;;;;;;5064107;28;20053;-81
2023/03/22 04:45:53;;;;;;;3.40;2.30;;;1.50;99.90;;;;;;5066998;28;20053;-83
2023/03/22 04:48:26;;;;;;;4.68;3.38;;;1.50;99.90;;;;;;5036266;28;20048;-78
2023/03/22 04:50:55;;;;;;;4.60;3.97;;;1.60;99.90;;;;;;5059592;28;20063;-82
2023/03/22 04:53:27;;;;;;;3.10;2.80;;;1.60;99.90;;;;;;5069934;28;20060;-79
2023/03/22 04:55:59;;;;;;;4.47;3.50;;;1.60;99.90;;;;;;5053546;28;20040;-79
2023/03/22 04:58:33;;;;;;;2.90;2.40;;;1.50;99.90;;;;;;5063227;28;20444;-78
2023/03/22 05:01:01;;;;;;;6.57;2.80;;;1.40;99.90;;;;;;5038915;28;20489;-78
2023/03/22 05:03:31;;;;;;;5.80;3.22;;;1.40;99.90;;;;;;5049325;28;20144;-79
2023/03/22 05:06:01;;;;;;;5.65;3.53;;;1.40;99.90;;;;;;5068683;28;20464;-81
2023/03/22 05:08:38;;;;;;;5.20;3.58;;;1.50;99.90;;;;;;5067814;28;20458;-77
2023/03/22 05:11:09;;;;;;;5.88;4.38;;;1.50;99.90;;;;;;5036210;28;20704;-79
2023/03/22 05:13:40;;;;;;;4.57;4.15;;;1.50;99.90;;;;;;5049874;28;20067;-79
2023/03/22 05:16:09;;;;;;;4.70;3.95;;;1.50;99.90;;;;;;5067444;28;20080;-78
2023/03/22 05:18:46;;;;;;;11.02;3.97;;;1.60;99.90;;;;;;5051042;28;20122;-78
2023/03/22 05:21:15;;;;;;;4.93;4.20;;;1.60;99.90;;;;;;5051014;28;20056;-79
2023/03/22 05:23:45;;;;;;;5.38;4.45;;;1.60;99.90;;;;;;5051540;28;20513;-79
2023/03/22 05:26:14;;;;;;;4.90;4.43;;;1.50;99.90;;;;;;5068768;28;20463;-80
2023/03/22 05:28:44;;;;;;;7.57;5.03;;;1.50;99.90;;;;;;5034666;28;20397;-79
2023/03/22 05:31:27;;;;;;;6.63;4.80;;;1.50;99.90;;;;;;5070853;28;20059;-78
2023/03/22 05:33:59;;;;;;;7.38;6.13;;;1.50;99.90;;;;;;5072441;28;20135;-78
2023/03/22 05:36:29;;;;;;;9.30;7.13;;;1.50;99.90;;;;;;5055738;28;20045;-78
2023/03/22 05:39:17;;;;;;;9.23;7.20;;;1.60;99.90;;;;;;5051223;28;20529;-79
2023/03/22 05:41:46;;;;;;;9.15;7.38;;;1.60;99.90;;;;;;5055795;28;20050;-79
2023/03/22 05:44:15;;;;;;;12.73;7.03;;;1.60;99.90;;;;;;5055682;28;20105;-80
2023/03/22 05:46:52;;;;;;;11.82;7.97;;;1.60;99.90;;;;;;5053794;28;20068;-79
2023/03/22 05:49:46;;;;;;;12.20;7.22;;;1.60;99.90;;;;;;5054600;28;20048;-80
2023/03/22 05:52:14;;;;;;;10.90;8.30;;;1.60;99.90;;;;;;5073511;28;20102;-79
2023/03/22 05:54:52;;;;;;;12.70;8.75;;;1.50;99.90;;;;;;5072665;28;20053;-80
2023/03/22 05:57:20;;;;;;;12.23;9.23;;;1.50;99.90;;;;;;5054009;28;20048;-77
2023/03/22 05:59:52;;;;;;;17.70;11.23;;;1.50;99.90;;;;;;5071990;28;20141;-81
2023/03/22 06:02:25;;;;;;;17.63;10.38;;;1.50;99.90;;;;;;5054292;28;20040;-80
2023/03/22 06:04:53;;;;;;;12.07;9.75;;;1.60;99.90;;;;;;5038288;28;20497;-78
2023/03/22 06:07:21;;;;;;;18.20;9.93;;;1.60;99.90;;;;;;5072322;28;20052;-77
2023/03/22 06:09:54;;;;;;;15.07;10.45;;;1.70;99.90;;;;;;5072346;28;20045;-77
2023/03/22 06:12:24;;;;;;;15.32;8.50;;;1.80;99.90;;;;;;5071832;28;20076;-76
2023/03/22 06:15:20;;;;;;;19.00;8.95;;;1.90;99.90;;;;;;5051159;28;20509;-77
2023/03/22 06:18:03;;;;;;;15.35;6.00;;;2.00;99.90;;;;;;5071075;28;20066;-77
2023/03/22 06:20:37;;;;;;;13.82;6.50;;;2.00;99.90;;;;;;5053821;28;20048;-77
2023/03/22 06:23:12;;;;;;;11.20;4.55;;;2.00;99.90;;;;;;5084786;28;20045;-77
2023/03/22 06:25:41;;;;;;;7.05;4.43;;;2.00;99.90;;;;;;5084013;28;20071;-77
2023/03/22 06:28:08;;;;;;;14.38;5.57;;;2.10;99.90;;;;;;5036309;28;20528;-77
2023/03/22 06:30:48;;;;;;;14.15;5.40;;;2.10;99.90;;;;;;5053706;28;20079;-79
2023/03/22 06:33:31;;;;;;;8.88;5.88;;;2.30;99.90;;;;;;5046528;28;20428;-78
2023/03/22 06:36:11;;;;;;;16.70;9.93;;;2.40;99.90;;;;;;5067970;28;20040;-78
2023/03/22 06:38:59;;;;;;;17.20;10.50;;;2.50;99.90;;;;;;5070568;28;20048;-77
2023/03/22 06:41:27;;;;;;;24.45;10.18;;;2.50;99.90;;;;;;5051111;28;20051;-79
2023/03/22 06:43:55;;;;;;;17.63;11.88;;;2.50;99.90;;;;;;5052992;28;20056;-78
2023/03/22 06:46:40;;;;;;;;;;;2.50;99.90;;;;;;5034412;28;20048;-78
2023/03/22 06:49:18;;;;;;;17.30;11.27;;;2.40;99.90;;;;;;5051906;28;19935;-78
2023/03/22 06:51:46;;;;;;;26.08;11.60;;;2.30;99.90;;;;;;5034231;28;20048;-79
2023/03/22 06:54:15;;;;;;;22.13;10.80;;;2.30;99.90;;;;;;5053775;28;20048;-79
2023/03/22 06:56:43;;;;;;;20.45;11.50;;;2.30;99.90;;;;;;5053333;28;20067;-80
2023/03/22 06:59:10;;;;;;;17.48;10.20;;;2.30;99.90;;;;;;5053090;28;20094;-80
2023/03/22 07:01:39;;;;;;;16.30;9.48;;;2.40;99.90;;;;;;5066222;28;20102;-80
2023/03/22 07:04:07;;;;;;;13.50;8.93;;;2.40;99.90;;;;;;5061306;28;20567;-79
2023/03/22 07:06:35;;;;;;;14.30;9.10;;;2.40;99.90;;;;;;5061736;28;20444;-79
2023/03/22 07:09:11;;;;;;;11.57;7.53;;;2.50;99.90;;;;;;5054218;28;20055;-80
2023/03/22 07:11:39;;;;;;;10.88;7.75;;;2.50;99.90;;;;;;5073751;28;20052;-79
2023/03/22 07:14:09;;;;;;;11.73;8.90;;;2.70;99.90;;;;;;5054697;28;20044;-78
2023/03/22 07:16:59;;;;;;;20.92;11.00;;;2.70;99.90;;;;;;5023293;28;20143;-80
2023/03/22 07:19:30;;;;;;;20.10;10.93;;;2.70;99.90;;;;;;5053221;28;20047;-80
2023/03/22 07:21:59;;;;;;;18.00;9.75;;;2.70;99.90;;;;;;5035081;28;20521;-78
2023/03/22 07:24:27;;;;;;;14.95;9.32;;;2.70;99.90;;;;;;5035117;28;20135;-78
2023/03/22 07:26:55;;;;;;;10.43;7.47;;;2.80;99.90;;;;;;5051433;28;20060;-80
2023/03/22 07:29:27;;;;;;;15.32;8.70;;;2.80;99.90;;;;;;5054979;28;20517;-79
2023/03/22 07:31:55;;;;;;;19.00;8.23;;;2.90;99.90;;;;;;5061182;28;20114;-78
2023/03/22 07:34:28;;;;;;;8.60;7.10;;;3.00;99.90;;;;;;5033821;28;20111;-79
2023/03/22 07:37:02;;;;;;;13.82;7.50;;;3.00;99.90;;;;;;5032353;28;20048;-79
2023/03/22 07:39:31;;;;;;;10.38;7.10;;;3.00;99.90;;;;;;5040210;28;20121;-78
2023/03/22 07:41:59;;;;;;;11.65;7.43;;;3.10;99.90;;;;;;5052593;28;20051;-78
2023/03/22 07:44:30;;;;;;;15.77;6.55;;;3.20;99.90;;;;;;5050709;28;20433;-78
2023/03/22 07:47:28;;;;;;;10.75;6.28;;;3.20;99.90;;;;;;4992253;28;20076;-78
2023/03/22 07:50:11;;;;;;;12.35;7.32;;;3.00;99.90;;;;;;5036770;28;20048;-79
2023/03/22 07:52:39;;;;;;;19.33;8.80;;;3.10;99.90;;;;;;5066600;28;20083;-79
2023/03/22 07:55:09;;;;;;;17.35;8.55;;;3.20;99.90;;;;;;5044416;28;20523;-78
2023/03/22 07:57:43;;;;;;;10.48;7.68;;;3.20;99.90;;;;;;5035492;28;20052;-78
2023/03/22 08:00:12;;;;;;;11.98;8.18;;;3.30;99.90;;;;;;5068024;28;20056;-79
2023/03/22 08:03:13;;;;;;;15.85;7.65;;;3.40;99.90;;;;;;5033249;28;20441;-78
2023/03/22 08:06:06;;;;;;;12.55;7.20;;;3.40;99.90;;;;;;5069831;28;20603;-79
2023/03/22 08:08:36;;;;;;;12.00;8.05;;;3.40;99.90;;;;;;5033875;28;20570;-79
2023/03/22 08:11:05;;;;;;;17.13;7.95;;;3.40;99.90;;;;;;5035970;28;20139;-78
2023/03/22 08:13:34;;;;;;;14.60;7.90;;;3.40;99.90;;;;;;5060037;28;20056;-79
2023/03/22 08:16:02;;;;;;;17.65;10.25;;;3.50;99.90;;;;;;5069873;28;20497;-79
2023/03/22 08:18:31;;;;;;;12.00;8.98;;;3.60;99.90;;;;;;5067738;28;20045;-79
2023/03/22 08:21:01;;;;;;;17.88;9.38;;;3.80;99.90;;;;;;5052491;28;20041;-81
2023/03/22 08:23:31;;;;;;;21.85;10.45;;;3.90;99.90;;;;;;5066715;28;20048;-81
2023/03/22 08:26:20;;;;;;;14.10;8.10;;;4.10;99.90;;;;;;5059484;28;20055;-81
2023/03/22 08:28:51;;;;;;;11.52;7.80;;;4.20;99.90;;;;;;5050840;28;20052;-80
2023/03/22 08:31:18;;;;;;;14.32;6.78;;;4.40;99.90;;;;;;5052828;28;20040;-80
2023/03/22 08:33:48;;;;;;;9.30;7.18;;;4.60;99.90;;;;;;5035253;28;20041;-79
2023/03/22 08:36:21;;;;;;;14.55;6.20;;;4.80;99.90;;;;;;5053134;28;20048;-79
2023/03/22 08:38:57;;;;;;;13.75;5.90;;;5.00;99.90;;;;;;5032663;28;20132;-79
2023/03/22 08:41:36;;;;;;;8.82;5.50;;;5.00;99.90;;;;;;5037136;28;20057;-79
2023/03/22 08:44:04;;;;;;;6.90;5.15;;;5.00;99.90;;;;;;5050248;28;20060;-78
2023/03/22 08:46:34;;;;;;;16.65;5.97;;;5.20;99.90;;;;;;5032386;28;20330;-80
2023/03/22 08:49:03;;;;;;;11.38;4.78;;;5.20;99.90;;;;;;5072074;28;20139;-79
2023/03/22 08:51:37;;;;;;;6.13;5.22;;;5.20;99.90;;;;;;5052262;28;20052;-80
2023/03/22 08:54:31;;;;;;;7.32;3.88;;;5.20;99.90;;;;;;5046740;28;20056;-79
2023/03/22 08:57:08;;;;;;;10.45;5.25;;;5.20;99.90;;;;;;5070708;28;20071;-79
2023/03/22 08:59:59;;;;;;;7.78;4.95;;;5.10;99.90;;;;;;5041505;28;20133;-80
2023/03/22 09:02:40;;;;;;;12.77;4.70;;;5.10;99.90;;;;;;5035819;28;20090;-81
2023/03/22 09:05:09;;;;;;;6.97;4.00;;;5.10;99.90;;;;;;5070330;28;20048;-80
2023/03/22 09:07:38;;;;;;;11.82;4.82;;;5.10;99.90;;;;;;5071538;28;20048;-80
2023/03/22 09:10:12;;;;;;;9.73;4.38;;;5.20;99.90;;;;;;5056660;28;20048;-80
2023/03/22 09:12:43;;;;;;;8.23;4.95;;;5.40;99.90;;;;;;5056273;28;20048;-81
2023/03/22 09:15:11;;;;;;;7.07;4.72;;;5.40;99.90;;;;;;5056356;28;20048;-80
2023/03/22 09:17:41;;;;;;;11.45;5.50;;;5.60;99.90;;;;;;5056162;28;20045;-82
2023/03/22 09:20:11;;;;;;;12.15;6.45;;;5.80;99.90;;;;;;5072813;28;20481;-80
2023/03/22 09:22:40;;;;;;;11.00;7.70;;;5.80;99.90;;;;;;5051591;28;20045;-81
2023/03/22 09:25:10;;;;;;;13.07;9.13;;;5.60;99.90;;;;;;5053887;28;20049;-81
2023/03/22 09:27:38;;;;;;;17.38;10.68;;;5.50;99.90;;;;;;5070062;28;20052;-82
2023/03/22 09:30:07;;;;;;;14.50;8.93;;;5.40;99.90;;;;;;5052791;28;20052;-81
2023/03/22 09:32:34;;;;;;;12.57;8.60;;;5.30;99.90;;;;;;5073891;28;20052;-80
2023/03/22 09:35:05;;;;;;;14.27;8.43;;;5.10;99.90;;;;;;5051443;28;20132;-80
2023/03/22 09:37:44;;;;;;;18.25;8.80;;;4.90;99.90;;;;;;5065049;28;20143;-81
2023/03/22 09:40:12;;;;;;;16.42;9.32;;;4.70;99.90;;;;;;5062420;28;20054;-79
2023/03/22 09:42:46;;;;;;;12.25;8.68;;;4.70;99.90;;;;;;5058485;28;20505;-81
2023/03/22 09:45:19;;;;;;;12.02;7.20;;;4.80;99.90;;;;;;5054340;28;20064;-81
2023/03/22 09:47:52;;;;;;;13.18;7.55;;;4.90;99.90;;;;;;5035451;28;20049;-82
2023/03/22 09:50:24;;;;;;;10.63;6.75;;;4.80;99.90;;;;;;5053246;28;20052;-81
2023/03/22 09:52:55;;;;;;;16.67;7.68;;;4.80;99.90;;;;;;5060961;28;20183;-81
2023/03/22 09:55:33;;;;;;;20.02;7.88;;;4.90;99.90;;;;;;5056482;28;20076;-79
2023/03/22 09:58:09;;;;;;;9.93;6.10;;;4.90;99.90;;;;;;5068201;28;20052;-78
2023/03/22 10:00:43;;;;;;;9.43;4.75;;;5.20;99.90;;;;;;5055232;28;20493;-78
2023/03/22 10:03:24;;;;;;;10.10;5.80;;;5.50;99.90;;;;;;5072017;28;20547;-78
2023/03/22 10:05:57;;;;;;;12.10;5.32;;;5.40;99.90;;;;;;5073364;28;20056;-80
2023/03/22 10:08:39;;;;;;;9.98;6.32;;;5.30;99.90;;;;;;5054915;28;20115;-77
2023/03/22 10:11:19;;;;;;;11.20;5.25;;;5.30;99.90;;;;;;5071798;28;20055;-78
2023/03/22 10:13:57;;;;;;;10.50;5.18;;;5.30;99.90;;;;;;5071755;28;20051;-77
2023/03/22 10:16:31;;;;;;;13.02;5.28;;;5.20;99.90;;;;;;5062776;28;20052;-77
2023/03/22 10:19:06;;;;;;;16.48;5.85;;;5.00;99.90;;;;;;5054266;28;20056;-78
2023/03/22 10:21:36;;;;;;;11.45;5.47;;;4.80;99.90;;;;;;5055108;28;20140;-78
2023/03/22 10:24:14;;;;;;;11.07;4.97;;;4.60;99.90;;;;;;5054846;28;20048;-78
2023/03/22 10:26:47;;;;;;;10.05;5.10;;;4.50;99.90;;;;;;5050458;28;20516;-79
2023/03/22 10:29:23;;;;;;;9.80;4.63;;;4.30;99.90;;;;;;5065121;28;20060;-79
2023/03/22 10:31:51;;;;;;;7.47;4.03;;;4.10;99.90;;;;;;5055326;28;20052;-78
2023/03/22 10:34:23;;;;;;;6.13;4.07;;;4.00;99.90;;;;;;5070389;28;20054;-78
2023/03/22 10:36:52;;;;;;;9.20;4.70;;;4.00;99.90;;;;;;5070837;28;20568;-78
2023/03/22 10:39:30;;;;;;;7.13;4.20;;;4.00;99.90;;;;;;5051159;28;20294;-79
2023/03/22 10:42:01;;;;;;;6.43;3.63;;;4.10;99.90;;;;;;5070931;28;20512;-77
2023/03/22 10:44:33;;;;;;;3.67;3.38;;;4.20;99.90;;;;;;5070118;28;20075;-80
2023/03/22 10:47:06;;;;;;;4.53;3.83;;;4.20;99.90;;;;;;5072909;28;20080;-80
2023/03/22 10:49:36;;;;;;;;;;;4.30;99.90;;;;;;5071422;28;20044;-79
2023/03/22 10:52:18;;;;;;;10.18;4.45;;;4.20;99.90;;;;;;5071443;28;20385;-79
2023/03/22 10:54:47;;;;;;;5.90;3.88;;;4.20;99.90;;;;;;5072566;28;20060;-80
2023/03/22 10:57:14;;;;;;;6.47;4.20;;;4.10;99.90;;;;;;5072077;28;20068;-79
2023/03/22 10:59:46;;;;;;;3.92;3.03;;;4.20;99.90;;;;;;5037196;28;20048;-80
2023/03/22 11:02:26;;;;;;;4.25;3.20;;;4.10;99.90;;;;;;5070156;28;20513;-79
2023/03/22 11:04:56;;;;;;;6.53;3.17;;;4.00;99.90;;;;;;5072271;28;20572;-78
2023/03/22 11:07:31;;;;;;;3.75;3.42;;;4.00;99.90;;;;;;5071410;28;20139;-78
2023/03/22 11:10:27;;;;;;;4.25;2.88;;;3.80;99.90;;;;;;5070295;28;20057;-79
2023/03/22 11:13:14;;;;;;;3.83;3.00;;;3.80;99.90;;;;;;5037681;28;20148;-78
2023/03/22 11:15:55;;;;;;;8.45;4.03;;;3.90;99.90;;;;;;5066247;28;20076;-79
2023/03/22 11:18:30;;;;;;;3.90;2.97;;;4.00;99.90;;;;;;5070352;28;20107;-78
2023/03/22 11:21:10;;;;;;;6.72;2.85;;;3.90;99.90;;;;;;5069212;28;20099;-77
2023/03/22 11:23:42;;;;;;;5.97;3.03;;;4.00;99.90;;;;;;5069626;28;20102;-79
2023/03/22 11:26:14;;;;;;;5.68;3.45;;;3.80;99.90;;;;;;5077547;28;20089;-79
2023/03/22 11:28:47;;;;;;;7.47;3.20;;;3.80;99.90;;;;;;5063790;28;20045;-81
2023/03/22 11:31:16;;;;;;;;;;;3.80;99.90;;;;;;5070841;28;20068;-80
2023/03/22 11:33:58;;;;;;;5.25;3.33;;;3.80;99.90;;;;;;5068115;28;19928;-81
2023/03/22 11:36:27;;;;;;;10.53;4.00;;;3.70;99.90;;;;;;5070607;28;20297;-80
2023/03/22 11:38:59;;;;;;;3.55;2.92;;;3.80;99.90;;;;;;5069526;28;20855;-81
2023/03/22 11:41:30;;;;;;;6.07;3.67;;;3.90;99.90;;;;;;5049109;28;20056;-80
2023/03/22 11:44:01;;;;;;;5.25;3.55;;;4.10;99.90;;;;;;5069703;28;20527;-81
2023/03/22 11:46:31;;;;;;;5.17;3.50;;;4.20;99.90;;;;;;5070009;28;20539;-81
2023/03/22 11:49:02;;;;;;;6.45;3.33;;;4.20;99.90;;;;;;5070980;28;20135;-80
2023/03/22 11:51:32;;;;;;;4.20;3.80;;;4.20;99.90;;;;;;5052832;28;20605;-78
2023/03/22 11:54:07;;;;;;;6.43;3.35;;;4.30;99.90;;;;;;5059893;28;20406;-79
2023/03/22 11:56:42;;;;;;;5.45;3.17;;;4.40;99.90;;;;;;5070289;28;20588;-79
2023/03/22 11:59:15;;;;;;;7.47;3.65;;;4.40;99.90;;;;;;5068888;28;20083;-78
2023/03/22 12:01:50;;;;;;;4.50;3.67;;;4.40;99.90;;;;;;5065664;28;20508;-79
2023/03/22 12:04:25;;;;;;;5.55;4.50;;;4.40;99.90;;;;;;5070665;28;20412;-80
2023/03/22 12:06:57;;;;;;;5.60;3.40;;;4.40;99.90;;;;;;5078975;28;20047;-79
2023/03/22 12:09:38;;;;;;;7.78;4.30;;;4.40;99.90;;;;;;5056431;28;20461;-79
2023/03/22 12:12:15;;;;;;;9.32;3.45;;;4.40;99.90;;;;;;5075193;28;20060;-78
2023/03/22 12:14:51;;;;;;;4.03;3.72;;;4.30;99.90;;;;;;5079837;28;20051;-77
2023/03/22 12:17:29;;;;;;;4.00;3.05;;;4.40;99.90;;;;;;5089397;28;20051;-80
2023/03/22 12:20:16;;;;;;;4.70;3.60;;;4.30;99.90;;;;;;5072242;28;20052;-79
2023/03/22 12:22:50;;;;;;;5.18;3.13;;;4.30;99.90;;;;;;5070983;28;20055;-79
2023/03/22 12:25:22;;;;;;;6.55;3.92;;;4.30;99.90;;;;;;5085782;28;20085;-78
2023/03/22 12:27:55;;;;;;;3.92;3.30;;;4.30;99.90;;;;;;5057099;28;20053;-78
2023/03/22 12:30:26;;;;;;;3.70;2.97;;;4.30;99.90;;;;;;5077654;28;20092;-80
2023/03/22 12:33:01;;;;;;;4.72;3.45;;;4.40;99.90;;;;;;5084530;28;20497;-80
2023/03/22 12:35:33;;;;;;;8.23;3.90;;;4.50;99.90;;;;;;5069224;28;20077;-79
2023/03/22 12:38:17;;;;;;;9.25;3.28;;;4.50;99.90;;;;;;5051530;28;20068;-81
2023/03/22 12:40:45;;;;;;;10.30;3.60;;;4.50;99.90;;;;;;5072611;28;20053;-77
2023/03/22 12:43:18;;;;;;;5.90;3.53;;;4.60;99.90;;;;;;5072121;28;20399;-78
2023/03/22 12:45:53;;;;;;;4.25;3.58;;;4.60;99.90;;;;;;5073807;28;20093;-77
2023/03/22 12:48:29;;;;;;;5.18;3.72;;;4.60;99.90;;;;;;5073773;28;20052;-79
2023/03/22 12:51:00;;;;;;;6.18;3.83;;;4.60;99.90;;;;;;5072339;28;20416;-77
2023/03/22 12:53:41;;;;;;;9.30;3.53;;;4.70;99.90;;;;;;5072626;28;20048;-77
2023/03/22 12:56:11;;;;;;;5.07;3.35;;;4.70;99.90;;;;;;5072219;28;20057;-79
2023/03/22 12:58:48;;;;;;;5.65;3.72;;;4.70;99.90;;;;;;5095936;28;20048;-79
2023/03/22 13:01:28;;;;;;;4.07;3.30;;;4.70;99.90;;;;;;5086924;28;20122;-80
2023/03/22 13:03:58;;;;;;;7.05;3.30;;;4.60;99.90;;;;;;5073856;28;20046;-80
2023/03/22 13:06:56;;;;;;;3.90;3.50;;;4.60;99.90;;;;;;5054653;28;20037;-80
2023/03/22 13:09:46;;;;;;;3.67;3.20;;;4.80;99.90;;;;;;5047717;28;20041;-79
2023/03/22 13:12:31;;;;;;;8.30;3.95;;;4.80;99.90;;;;;;5068164;28;20060;-80
2023/03/22 13:15:18;;;;;;;5.15;3.25;;;4.80;99.90;;;;;;5074837;28;20470;-77
2023/03/22 13:17:46;;;;;;;9.05;3.45;;;4.80;99.90;;;;;;5074692;28;20102;-79
2023/03/22 13:20:32;;;;;;;7.82;3.00;;;4.80;99.90;;;;;;5074912;28;20075;-79
2023/03/22 13:23:11;;;;;;;5.50;2.63;;;4.90;99.90;;;;;;5069517;28;20057;-79
2023/03/22 13:25:58;;;;;;;3.92;2.97;;;4.80;99.90;;;;;;5073992;28;20076;-79
2023/03/22 13:28:35;;;;;;;3.75;2.65;;;4.80;99.90;;;;;;5067340;28;20045;-79
2023/03/22 13:31:21;;;;;;;4.80;2.30;;;4.70;99.90;;;;;;5041876;28;20053;-78
2023/03/22 13:33:54;;;;;;;3.92;2.05;;;4.70;99.90;;;;;;5046783;28;20052;-79